sensor_id;sensor_type;location;lat;lon;timestamp;P1;durP1;ratioP1;P2;durP2;ratioP2
65751;SDS011;52486;51.098;13.770;2023-02-01T00:02:00;3.28;;;1.00;;
65751;SDS011;52486;51.098;13.770;2023-02-01T00:04:26;1.13;;;1.02;;
65751;SDS011;52486;51.098;13.770;2023-02-01T00:06:52;1.80;;;1.33;;
65751;SDS011;52486;51.098;13.770;2023-02-01T00:09:18;1.73;;;1.48;;
65751;SDS011;52486;51.098;13.770;2023-02-01T00:11:43;2.80;;;1.38;;
65751;SDS011;52486;51.098;13.770;2023-02-01T00:14:09;1.55;;;1.20;;
65751;SDS011;52486;51.098;13.770;2023-02-01T00:16:35;2.92;;;1.33;;
65751;SDS011;52486;51.098;13.770;2023-02-01T00:19:03;1.20;;;1.10;;
65751;SDS011;52486;51.098;13.770;2023-02-01T00:21:36;3.72;;;1.50;;
65751;SDS011;52486;51.098;13.770;2023-02-01T00:24:02;2.22;;;1.23;;
65751;SDS011;52486;51.098;13.770;2023-02-01T00:26:32;1.65;;;0.90;;
65751;SDS011;52486;51.098;13.770;2023-02-01T00:29:00;1.50;;;1.20;;
65751;SDS011;52486;51.098;13.770;2023-02-01T00:31:27;1.63;;;1.17;;
65751;SDS011;52486;51.098;13.770;2023-02-01T00:33:53;0.93;;;0.93;;
65751;SDS011;52486;51.098;13.770;2023-02-01T00:36:19;1.75;;;0.90;;
65751;SDS011;52486;51.098;13.770;2023-02-01T00:38:45;1.27;;;1.00;;
65751;SDS011;52486;51.098;13.770;2023-02-01T00:41:12;2.33;;;1.27;;
65751;SDS011;52486;51.098;13.770;2023-02-01T00:43:39;2.47;;;1.23;;
65751;SDS011;52486;51.098;13.770;2023-02-01T00:46:05;1.42;;;1.10;;
65751;SDS011;52486;51.098;13.770;2023-02-01T00:48:31;1.30;;;1.15;;
65751;SDS011;52486;51.098;13.770;2023-02-01T00:51:01;1.27;;;1.00;;
65751;SDS011;52486;51.098;13.770;2023-02-01T00:53:28;1.15;;;1.02;;
65751;SDS011;52486;51.098;13.770;2023-02-01T00:55:55;1.30;;;1.15;;
65751;SDS011;52486;51.098;13.770;2023-02-01T00:58:21;1.25;;;1.13;;
65751;SDS011;52486;51.098;13.770;2023-02-01T01:00:49;1.67;;;1.25;;
65751;SDS011;52486;51.098;13.770;2023-02-01T01:03:15;1.80;;;1.20;;
65751;SDS011;52486;51.098;13.770;2023-02-01T01:05:44;1.73;;;1.23;;
65751;SDS011;52486;51.098;13.770;2023-02-01T01:08:10;1.45;;;1.20;;
65751;SDS011;52486;51.098;13.770;2023-02-01T01:10:36;3.05;;;1.30;;
65751;SDS011;52486;51.098;13.770;2023-02-01T01:13:02;1.73;;;1.25;;
65751;SDS011;52486;51.098;13.770;2023-02-01T01:15:27;1.27;;;1.17;;
65751;SDS011;52486;51.098;13.770;2023-02-01T01:17:53;1.15;;;1.05;;
65751;SDS011;52486;51.098;13.770;2023-02-01T01:20:19;1.20;;;1.10;;
65751;SDS011;52486;51.098;13.770;2023-02-01T01:22:46;1.60;;;1.15;;
65751;SDS011;52486;51.098;13.770;2023-02-01T01:25:13;1.30;;;1.20;;
65751;SDS011;52486;51.098;13.770;2023-02-01T01:27:39;1.73;;;1.25;;
65751;SDS011;52486;51.098;13.770;2023-02-01T01:30:05;1.73;;;1.10;;
65751;SDS011;52486;51.098;13.770;2023-02-01T01:32:31;2.10;;;1.50;;
65751;SDS011;52486;51.098;13.770;2023-02-01T01:34:57;2.38;;;1.10;;
65751;SDS011;52486;51.098;13.770;2023-02-01T01:37:22;2.70;;;1.45;;
65751;SDS011;52486;51.098;13.770;2023-02-01T01:39:48;2.22;;;1.27;;
65751;SDS011;52486;51.098;13.770;2023-02-01T01:42:13;1.42;;;1.23;;
65751;SDS011;52486;51.098;13.770;2023-02-01T01:47:34;1.80;;;1.40;;
65751;SDS011;52486;51.098;13.770;2023-02-01T01:50:06;2.67;;;1.25;;
65751;SDS011;52486;51.098;13.770;2023-02-01T01:52:33;1.17;;;1.08;;
65751;SDS011;52486;51.098;13.770;2023-02-01T01:55:00;1.67;;;1.20;;
65751;SDS011;52486;51.098;13.770;2023-02-01T01:57:27;1.05;;;0.93;;
65751;SDS011;52486;51.098;13.770;2023-02-01T02:00:00;1.25;;;1.15;;
65751;SDS011;52486;51.098;13.770;2023-02-01T02:02:32;1.83;;;1.35;;
65751;SDS011;52486;51.098;13.770;2023-02-01T02:04:58;1.77;;;1.25;;
65751;SDS011;52486;51.098;13.770;2023-02-01T02:07:25;1.27;;;1.17;;
65751;SDS011;52486;51.098;13.770;2023-02-01T02:09:54;1.35;;;1.20;;
65751;SDS011;52486;51.098;13.770;2023-02-01T02:12:20;1.20;;;1.00;;
65751;SDS011;52486;51.098;13.770;2023-02-01T02:14:46;1.33;;;1.23;;
65751;SDS011;52486;51.098;13.770;2023-02-01T02:36:10;1.00;;;1.00;;
65751;SDS011;52486;51.098;13.770;2023-02-01T02:41:40;1.52;;;1.25;;
65751;SDS011;52486;51.098;13.770;2023-02-01T02:44:46;1.80;;;1.17;;
65751;SDS011;52486;51.098;13.770;2023-02-01T02:47:51;1.30;;;1.17;;
65751;SDS011;52486;51.098;13.770;2023-02-01T02:50:55;1.38;;;1.20;;
65751;SDS011;52486;51.098;13.770;2023-02-01T02:53:52;3.13;;;1.30;;
65751;SDS011;52486;51.098;13.770;2023-02-01T02:56:53;1.95;;;1.30;;
65751;SDS011;52486;51.098;13.770;2023-02-01T02:59:39;2.40;;;1.42;;
65751;SDS011;52486;51.098;13.770;2023-02-01T03:02:26;1.42;;;1.30;;
65751;SDS011;52486;51.098;13.770;2023-02-01T03:05:11;1.98;;;1.48;;
65751;SDS011;52486;51.098;13.770;2023-02-01T03:10:32;1.65;;;1.30;;
65751;SDS011;52486;51.098;13.770;2023-02-01T03:13:03;1.67;;;1.20;;
65751;SDS011;52486;51.098;13.770;2023-02-01T03:15:34;2.15;;;1.15;;
65751;SDS011;52486;51.098;13.770;2023-02-01T03:20:58;2.13;;;1.27;;
65751;SDS011;52486;51.098;13.770;2023-02-01T03:23:27;2.03;;;1.20;;
65751;SDS011;52486;51.098;13.770;2023-02-01T03:25:57;1.45;;;1.23;;
65751;SDS011;52486;51.098;13.770;2023-02-01T03:28:24;1.88;;;1.30;;
65751;SDS011;52486;51.098;13.770;2023-02-01T03:30:53;4.72;;;1.15;;
65751;SDS011;52486;51.098;13.770;2023-02-01T03:33:20;1.33;;;1.20;;
65751;SDS011;52486;51.098;13.770;2023-02-01T03:38:33;2.58;;;1.10;;
65751;SDS011;52486;51.098;13.770;2023-02-01T03:41:35;2.20;;;1.40;;
65751;SDS011;52486;51.098;13.770;2023-02-01T03:46:42;2.00;;;1.67;;
65751;SDS011;52486;51.098;13.770;2023-02-01T03:49:17;2.30;;;1.27;;
65751;SDS011;52486;51.098;13.770;2023-02-01T03:51:59;2.85;;;1.20;;
65751;SDS011;52486;51.098;13.770;2023-02-01T03:54:25;2.38;;;1.40;;
65751;SDS011;52486;51.098;13.770;2023-02-01T03:56:54;1.77;;;1.50;;
65751;SDS011;52486;51.098;13.770;2023-02-01T03:59:22;2.67;;;1.40;;
65751;SDS011;52486;51.098;13.770;2023-02-01T04:01:49;1.33;;;1.13;;
65751;SDS011;52486;51.098;13.770;2023-02-01T04:04:15;1.52;;;1.40;;
65751;SDS011;52486;51.098;13.770;2023-02-01T04:06:48;1.55;;;1.38;;
65751;SDS011;52486;51.098;13.770;2023-02-01T04:09:15;1.88;;;1.10;;
65751;SDS011;52486;51.098;13.770;2023-02-01T04:11:41;1.60;;;1.30;;
65751;SDS011;52486;51.098;13.770;2023-02-01T04:14:07;3.13;;;1.40;;
65751;SDS011;52486;51.098;13.770;2023-02-01T04:16:33;1.83;;;1.27;;
65751;SDS011;52486;51.098;13.770;2023-02-01T04:18:59;1.80;;;1.48;;
65751;SDS011;52486;51.098;13.770;2023-02-01T04:21:25;2.15;;;1.20;;
65751;SDS011;52486;51.098;13.770;2023-02-01T04:23:52;1.58;;;1.17;;
65751;SDS011;52486;51.098;13.770;2023-02-01T04:26:18;3.53;;;1.38;;
65751;SDS011;52486;51.098;13.770;2023-02-01T04:28:44;2.90;;;1.13;;
65751;SDS011;52486;51.098;13.770;2023-02-01T04:31:13;1.95;;;1.20;;
65751;SDS011;52486;51.098;13.770;2023-02-01T04:33:39;2.47;;;1.20;;
65751;SDS011;52486;51.098;13.770;2023-02-01T04:36:05;2.05;;;1.02;;
65751;SDS011;52486;51.098;13.770;2023-02-01T04:38:32;2.80;;;1.30;;
65751;SDS011;52486;51.098;13.770;2023-02-01T04:40:58;1.50;;;1.25;;
65751;SDS011;52486;51.098;13.770;2023-02-01T04:43:24;1.70;;;1.05;;
65751;SDS011;52486;51.098;13.770;2023-02-01T04:45:50;1.58;;;1.42;;
65751;SDS011;52486;51.098;13.770;2023-02-01T04:48:16;1.85;;;1.30;;
65751;SDS011;52486;51.098;13.770;2023-02-01T04:50:44;1.10;;;1.00;;
65751;SDS011;52486;51.098;13.770;2023-02-01T04:53:15;1.42;;;1.15;;
65751;SDS011;52486;51.098;13.770;2023-02-01T04:55:42;1.10;;;1.00;;
65751;SDS011;52486;51.098;13.770;2023-02-01T04:58:08;1.20;;;1.10;;
65751;SDS011;52486;51.098;13.770;2023-02-01T05:00:34;1.30;;;1.20;;
65751;SDS011;52486;51.098;13.770;2023-02-01T05:03:00;1.23;;;1.13;;
65751;SDS011;52486;51.098;13.770;2023-02-01T05:05:26;1.75;;;1.20;;
65751;SDS011;52486;51.098;13.770;2023-02-01T05:07:53;1.58;;;1.23;;
65751;SDS011;52486;51.098;13.770;2023-02-01T05:10:19;1.40;;;1.20;;
65751;SDS011;52486;51.098;13.770;2023-02-01T05:12:44;1.65;;;1.33;;
65751;SDS011;52486;51.098;13.770;2023-02-01T05:15:29;1.88;;;1.23;;
65751;SDS011;52486;51.098;13.770;2023-02-01T05:17:55;4.85;;;1.23;;
65751;SDS011;52486;51.098;13.770;2023-02-01T05:20:21;2.00;;;1.30;;
65751;SDS011;52486;51.098;13.770;2023-02-01T05:22:47;1.33;;;1.10;;
65751;SDS011;52486;51.098;13.770;2023-02-01T05:25:13;2.53;;;1.10;;
65751;SDS011;52486;51.098;13.770;2023-02-01T05:27:39;1.85;;;1.50;;
65751;SDS011;52486;51.098;13.770;2023-02-01T05:30:05;2.25;;;1.10;;
65751;SDS011;52486;51.098;13.770;2023-02-01T05:32:32;3.05;;;1.25;;
65751;SDS011;52486;51.098;13.770;2023-02-01T05:34:58;1.65;;;1.00;;
65751;SDS011;52486;51.098;13.770;2023-02-01T05:37:24;1.27;;;1.17;;
65751;SDS011;52486;51.098;13.770;2023-02-01T05:39:49;1.33;;;1.13;;
65751;SDS011;52486;51.098;13.770;2023-02-01T05:42:15;1.70;;;1.20;;
65751;SDS011;52486;51.098;13.770;2023-02-01T05:44:41;1.92;;;1.23;;
65751;SDS011;52486;51.098;13.770;2023-02-01T05:47:07;1.58;;;1.25;;
65751;SDS011;52486;51.098;13.770;2023-02-01T05:49:33;3.22;;;1.20;;
65751;SDS011;52486;51.098;13.770;2023-02-01T05:51:59;1.90;;;1.10;;
65751;SDS011;52486;51.098;13.770;2023-02-01T05:54:25;2.30;;;1.30;;
65751;SDS011;52486;51.098;13.770;2023-02-01T05:56:51;2.15;;;1.20;;
65751;SDS011;52486;51.098;13.770;2023-02-01T05:59:16;1.00;;;0.90;;
65751;SDS011;52486;51.098;13.770;2023-02-01T06:01:42;1.30;;;1.20;;
65751;SDS011;52486;51.098;13.770;2023-02-01T06:04:08;5.75;;;1.40;;
65751;SDS011;52486;51.098;13.770;2023-02-01T06:06:33;8.88;;;1.85;;
65751;SDS011;52486;51.098;13.770;2023-02-01T06:08:59;8.75;;;2.10;;
65751;SDS011;52486;51.098;13.770;2023-02-01T06:11:25;9.73;;;2.17;;
65751;SDS011;52486;51.098;13.770;2023-02-01T06:13:53;6.53;;;1.67;;
65751;SDS011;52486;51.098;13.770;2023-02-01T06:16:19;6.68;;;1.83;;
65751;SDS011;52486;51.098;13.770;2023-02-01T06:18:45;5.13;;;2.08;;
65751;SDS011;52486;51.098;13.770;2023-02-01T06:21:11;6.22;;;2.15;;
65751;SDS011;52486;51.098;13.770;2023-02-01T06:23:38;6.80;;;1.70;;
65751;SDS011;52486;51.098;13.770;2023-02-01T06:26:05;5.60;;;1.70;;
65751;SDS011;52486;51.098;13.770;2023-02-01T06:28:34;5.60;;;1.92;;
65751;SDS011;52486;51.098;13.770;2023-02-01T06:31:04;6.80;;;1.85;;
65751;SDS011;52486;51.098;13.770;2023-02-01T06:33:34;6.47;;;1.90;;
65751;SDS011;52486;51.098;13.770;2023-02-01T06:36:01;8.10;;;2.60;;
65751;SDS011;52486;51.098;13.770;2023-02-01T06:38:29;4.22;;;1.70;;
65751;SDS011;52486;51.098;13.770;2023-02-01T06:40:55;4.35;;;1.77;;
65751;SDS011;52486;51.098;13.770;2023-02-01T06:43:23;6.10;;;1.70;;
65751;SDS011;52486;51.098;13.770;2023-02-01T06:45:50;4.53;;;2.30;;
65751;SDS011;52486;51.098;13.770;2023-02-01T06:48:17;2.75;;;1.70;;
65751;SDS011;52486;51.098;13.770;2023-02-01T06:50:43;3.75;;;1.48;;
65751;SDS011;52486;51.098;13.770;2023-02-01T06:53:09;6.05;;;1.73;;
65751;SDS011;52486;51.098;13.770;2023-02-01T06:55:36;4.43;;;1.88;;
65751;SDS011;52486;51.098;13.770;2023-02-01T06:58:02;3.83;;;1.75;;
65751;SDS011;52486;51.098;13.770;2023-02-01T07:00:28;5.15;;;1.58;;
65751;SDS011;52486;51.098;13.770;2023-02-01T07:02:54;3.42;;;1.70;;
65751;SDS011;52486;51.098;13.770;2023-02-01T07:05:20;3.55;;;1.70;;
65751;SDS011;52486;51.098;13.770;2023-02-01T07:07:46;5.15;;;1.60;;
65751;SDS011;52486;51.098;13.770;2023-02-01T07:10:12;5.35;;;1.77;;
65751;SDS011;52486;51.098;13.770;2023-02-01T07:12:38;4.15;;;1.70;;
65751;SDS011;52486;51.098;13.770;2023-02-01T07:15:04;3.13;;;1.92;;
65751;SDS011;52486;51.098;13.770;2023-02-01T07:17:31;5.03;;;1.90;;
65751;SDS011;52486;51.098;13.770;2023-02-01T07:19:57;2.67;;;1.65;;
65751;SDS011;52486;51.098;13.770;2023-02-01T07:22:25;7.20;;;2.10;;
65751;SDS011;52486;51.098;13.770;2023-02-01T07:24:51;3.28;;;1.58;;
65751;SDS011;52486;51.098;13.770;2023-02-01T07:27:17;3.28;;;1.63;;
65751;SDS011;52486;51.098;13.770;2023-02-01T07:29:42;5.18;;;1.88;;
65751;SDS011;52486;51.098;13.770;2023-02-01T07:32:08;2.63;;;1.67;;
65751;SDS011;52486;51.098;13.770;2023-02-01T07:34:34;4.22;;;1.63;;
65751;SDS011;52486;51.098;13.770;2023-02-01T07:37:00;8.75;;;1.55;;
65751;SDS011;52486;51.098;13.770;2023-02-01T07:39:25;8.98;;;1.80;;
65751;SDS011;52486;51.098;13.770;2023-02-01T07:41:53;2.35;;;1.38;;
65751;SDS011;52486;51.098;13.770;2023-02-01T07:44:19;6.32;;;1.90;;
65751;SDS011;52486;51.098;13.770;2023-02-01T07:46:47;4.88;;;1.65;;
65751;SDS011;52486;51.098;13.770;2023-02-01T07:49:14;4.72;;;1.65;;
65751;SDS011;52486;51.098;13.770;2023-02-01T07:51:39;3.17;;;1.80;;
65751;SDS011;52486;51.098;13.770;2023-02-01T07:54:05;5.53;;;1.55;;
65751;SDS011;52486;51.098;13.770;2023-02-01T07:56:31;4.00;;;1.92;;
65751;SDS011;52486;51.098;13.770;2023-02-01T07:58:57;7.32;;;1.60;;
65751;SDS011;52486;51.098;13.770;2023-02-01T08:01:25;6.10;;;1.85;;
65751;SDS011;52486;51.098;13.770;2023-02-01T08:03:56;5.88;;;1.92;;
65751;SDS011;52486;51.098;13.770;2023-02-01T08:06:24;11.05;;;2.03;;
65751;SDS011;52486;51.098;13.770;2023-02-01T08:08:51;7.90;;;1.77;;
65751;SDS011;52486;51.098;13.770;2023-02-01T08:11:17;5.25;;;2.10;;
65751;SDS011;52486;51.098;13.770;2023-02-01T08:13:44;8.18;;;2.17;;
65751;SDS011;52486;51.098;13.770;2023-02-01T08:16:10;11.13;;;2.33;;
65751;SDS011;52486;51.098;13.770;2023-02-01T08:18:37;6.40;;;2.38;;
65751;SDS011;52486;51.098;13.770;2023-02-01T08:21:11;3.65;;;2.10;;
65751;SDS011;52486;51.098;13.770;2023-02-01T08:23:39;5.63;;;2.20;;
65751;SDS011;52486;51.098;13.770;2023-02-01T08:26:06;6.15;;;2.00;;
65751;SDS011;52486;51.098;13.770;2023-02-01T08:28:42;6.93;;;1.98;;
65751;SDS011;52486;51.098;13.770;2023-02-01T08:31:11;4.75;;;2.20;;
65751;SDS011;52486;51.098;13.770;2023-02-01T08:33:39;5.40;;;2.15;;
65751;SDS011;52486;51.098;13.770;2023-02-01T08:36:07;7.80;;;2.70;;
65751;SDS011;52486;51.098;13.770;2023-02-01T08:38:34;5.72;;;2.40;;
65751;SDS011;52486;51.098;13.770;2023-02-01T08:41:20;5.97;;;2.00;;
65751;SDS011;52486;51.098;13.770;2023-02-01T08:43:48;7.53;;;2.05;;
65751;SDS011;52486;51.098;13.770;2023-02-01T08:46:14;6.78;;;2.33;;
65751;SDS011;52486;51.098;13.770;2023-02-01T08:48:40;7.78;;;2.10;;
65751;SDS011;52486;51.098;13.770;2023-02-01T08:51:08;8.98;;;2.30;;
65751;SDS011;52486;51.098;13.770;2023-02-01T08:53:35;4.03;;;2.22;;
65751;SDS011;52486;51.098;13.770;2023-02-01T08:56:01;4.30;;;1.98;;
65751;SDS011;52486;51.098;13.770;2023-02-01T08:58:28;8.00;;;2.30;;
65751;SDS011;52486;51.098;13.770;2023-02-01T09:00:53;7.30;;;2.13;;
65751;SDS011;52486;51.098;13.770;2023-02-01T09:03:20;10.25;;;2.15;;
65751;SDS011;52486;51.098;13.770;2023-02-01T09:05:46;11.75;;;2.38;;
65751;SDS011;52486;51.098;13.770;2023-02-01T09:08:12;10.25;;;2.60;;
65751;SDS011;52486;51.098;13.770;2023-02-01T09:10:40;6.35;;;1.83;;
65751;SDS011;52486;51.098;13.770;2023-02-01T09:13:07;6.82;;;2.10;;
65751;SDS011;52486;51.098;13.770;2023-02-01T09:15:33;6.95;;;2.35;;
65751;SDS011;52486;51.098;13.770;2023-02-01T09:17:59;5.38;;;1.80;;
65751;SDS011;52486;51.098;13.770;2023-02-01T09:20:25;6.10;;;2.00;;
65751;SDS011;52486;51.098;13.770;2023-02-01T09:22:51;7.97;;;2.10;;
65751;SDS011;52486;51.098;13.770;2023-02-01T09:25:18;5.38;;;1.92;;
65751;SDS011;52486;51.098;13.770;2023-02-01T09:27:44;10.50;;;2.00;;
65751;SDS011;52486;51.098;13.770;2023-02-01T09:30:09;5.50;;;2.40;;
65751;SDS011;52486;51.098;13.770;2023-02-01T09:32:36;10.80;;;2.33;;
65751;SDS011;52486;51.098;13.770;2023-02-01T09:35:02;4.20;;;1.80;;
65751;SDS011;52486;51.098;13.770;2023-02-01T09:37:28;5.25;;;2.13;;
65751;SDS011;52486;51.098;13.770;2023-02-01T09:39:54;7.45;;;2.40;;
65751;SDS011;52486;51.098;13.770;2023-02-01T09:42:27;6.85;;;1.98;;
65751;SDS011;52486;51.098;13.770;2023-02-01T09:45:17;9.80;;;2.28;;
65751;SDS011;52486;51.098;13.770;2023-02-01T09:48:08;6.00;;;2.10;;
65751;SDS011;52486;51.098;13.770;2023-02-01T09:50:40;5.88;;;1.98;;
65751;SDS011;52486;51.098;13.770;2023-02-01T09:55:45;5.70;;;2.10;;
65751;SDS011;52486;51.098;13.770;2023-02-01T10:00:57;5.63;;;1.92;;
65751;SDS011;52486;51.098;13.770;2023-02-01T10:03:26;4.50;;;1.48;;
65751;SDS011;52486;51.098;13.770;2023-02-01T10:10:58;5.53;;;1.80;;
65751;SDS011;52486;51.098;13.770;2023-02-01T10:19:06;6.30;;;2.00;;
65751;SDS011;52486;51.098;13.770;2023-02-01T10:27:00;6.50;;;1.85;;
65751;SDS011;52486;51.098;13.770;2023-02-01T10:29:37;5.88;;;2.05;;
65751;SDS011;52486;51.098;13.770;2023-02-01T10:32:20;7.10;;;1.90;;
65751;SDS011;52486;51.098;13.770;2023-02-01T10:34:52;10.63;;;2.33;;
65751;SDS011;52486;51.098;13.770;2023-02-01T10:37:24;9.77;;;2.38;;
65751;SDS011;52486;51.098;13.770;2023-02-01T10:39:56;10.77;;;2.00;;
65751;SDS011;52486;51.098;13.770;2023-02-01T10:42:26;7.20;;;1.80;;
65751;SDS011;52486;51.098;13.770;2023-02-01T10:44:54;6.35;;;2.25;;
65751;SDS011;52486;51.098;13.770;2023-02-01T10:47:23;9.93;;;1.92;;
65751;SDS011;52486;51.098;13.770;2023-02-01T10:52:21;10.68;;;2.05;;
65751;SDS011;52486;51.098;13.770;2023-02-01T10:55:29;7.22;;;1.77;;
65751;SDS011;52486;51.098;13.770;2023-02-01T10:58:02;5.65;;;2.00;;
65751;SDS011;52486;51.098;13.770;2023-02-01T11:00:34;6.47;;;2.05;;
65751;SDS011;52486;51.098;13.770;2023-02-01T11:03:22;8.00;;;1.90;;
65751;SDS011;52486;51.098;13.770;2023-02-01T11:08:23;7.45;;;1.60;;
65751;SDS011;52486;51.098;13.770;2023-02-01T11:10:56;6.45;;;2.08;;
65751;SDS011;52486;51.098;13.770;2023-02-01T11:13:31;4.68;;;1.63;;
65751;SDS011;52486;51.098;13.770;2023-02-01T11:16:02;3.50;;;1.65;;
65751;SDS011;52486;51.098;13.770;2023-02-01T11:18:30;8.35;;;2.10;;
65751;SDS011;52486;51.098;13.770;2023-02-01T11:20:59;6.07;;;1.70;;
65751;SDS011;52486;51.098;13.770;2023-02-01T11:23:26;5.85;;;1.88;;
65751;SDS011;52486;51.098;13.770;2023-02-01T11:25:54;2.63;;;1.58;;
65751;SDS011;52486;51.098;13.770;2023-02-01T11:28:30;6.25;;;1.70;;
65751;SDS011;52486;51.098;13.770;2023-02-01T11:30:59;6.72;;;2.45;;
65751;SDS011;52486;51.098;13.770;2023-02-01T11:33:32;13.95;;;1.90;;
65751;SDS011;52486;51.098;13.770;2023-02-01T11:36:05;3.78;;;1.73;;
65751;SDS011;52486;51.098;13.770;2023-02-01T11:38:37;7.32;;;2.17;;
65751;SDS011;52486;51.098;13.770;2023-02-01T11:41:13;7.88;;;2.20;;
65751;SDS011;52486;51.098;13.770;2023-02-01T11:43:55;12.18;;;2.22;;
65751;SDS011;52486;51.098;13.770;2023-02-01T11:46:30;10.90;;;2.22;;
65751;SDS011;52486;51.098;13.770;2023-02-01T11:49:13;10.85;;;2.13;;
65751;SDS011;52486;51.098;13.770;2023-02-01T11:51:50;11.70;;;2.28;;
65751;SDS011;52486;51.098;13.770;2023-02-01T12:06:48;12.85;;;1.88;;
65751;SDS011;52486;51.098;13.770;2023-02-01T12:20:35;10.27;;;1.90;;
65751;SDS011;52486;51.098;13.770;2023-02-01T12:28:39;11.18;;;2.00;;
65751;SDS011;52486;51.098;13.770;2023-02-01T12:34:26;6.43;;;2.20;;
65751;SDS011;52486;51.098;13.770;2023-02-01T12:45:28;10.95;;;1.65;;
65751;SDS011;52486;51.098;13.770;2023-02-01T12:50:58;7.65;;;2.40;;
65751;SDS011;52486;51.098;13.770;2023-02-01T12:53:35;3.80;;;1.70;;
65751;SDS011;52486;51.098;13.770;2023-02-01T12:56:11;4.65;;;1.60;;
65751;SDS011;52486;51.098;13.770;2023-02-01T13:01:21;8.18;;;1.80;;
65751;SDS011;52486;51.098;13.770;2023-02-01T13:03:59;5.85;;;1.67;;
65751;SDS011;52486;51.098;13.770;2023-02-01T13:06:54;5.65;;;1.90;;
65751;SDS011;52486;51.098;13.770;2023-02-01T13:12:19;10.60;;;1.90;;
65751;SDS011;52486;51.098;13.770;2023-02-01T13:17:23;5.43;;;1.88;;
65751;SDS011;52486;51.098;13.770;2023-02-01T13:22:36;7.65;;;1.92;;
65751;SDS011;52486;51.098;13.770;2023-02-01T13:25:12;5.15;;;1.75;;
65751;SDS011;52486;51.098;13.770;2023-02-01T13:27:53;5.30;;;1.98;;
65751;SDS011;52486;51.098;13.770;2023-02-01T13:36:43;3.00;;;1.55;;
65751;SDS011;52486;51.098;13.770;2023-02-01T13:42:35;4.22;;;1.58;;
65751;SDS011;52486;51.098;13.770;2023-02-01T13:45:13;7.07;;;2.05;;
65751;SDS011;52486;51.098;13.770;2023-02-01T13:47:42;4.75;;;1.48;;
65751;SDS011;52486;51.098;13.770;2023-02-01T13:50:19;4.68;;;1.65;;
65751;SDS011;52486;51.098;13.770;2023-02-01T13:55:38;3.45;;;1.63;;
65751;SDS011;52486;51.098;13.770;2023-02-01T14:00:39;4.55;;;1.90;;
65751;SDS011;52486;51.098;13.770;2023-02-01T14:08:08;5.20;;;1.90;;
65751;SDS011;52486;51.098;13.770;2023-02-01T14:31:41;5.95;;;2.20;;
65751;SDS011;52486;51.098;13.770;2023-02-01T14:50:22;3.78;;;2.08;;
65751;SDS011;52486;51.098;13.770;2023-02-01T14:58:16;8.93;;;2.40;;
65751;SDS011;52486;51.098;13.770;2023-02-01T15:01:06;7.00;;;2.42;;
65751;SDS011;52486;51.098;13.770;2023-02-01T15:09:17;6.20;;;2.40;;
65751;SDS011;52486;51.098;13.770;2023-02-01T15:14:41;5.35;;;2.25;;
65751;SDS011;52486;51.098;13.770;2023-02-01T15:17:26;6.95;;;2.30;;
65751;SDS011;52486;51.098;13.770;2023-02-01T15:20:00;7.60;;;2.28;;
65751;SDS011;52486;51.098;13.770;2023-02-01T15:22:28;11.10;;;2.30;;
65751;SDS011;52486;51.098;13.770;2023-02-01T15:24:57;5.88;;;1.92;;
65751;SDS011;52486;51.098;13.770;2023-02-01T15:27:25;6.45;;;2.30;;
65751;SDS011;52486;51.098;13.770;2023-02-01T15:29:54;4.32;;;2.10;;
65751;SDS011;52486;51.098;13.770;2023-02-01T15:32:34;7.68;;;2.30;;
65751;SDS011;52486;51.098;13.770;2023-02-01T15:35:03;4.78;;;2.20;;
65751;SDS011;52486;51.098;13.770;2023-02-01T15:37:30;6.30;;;1.98;;
65751;SDS011;52486;51.098;13.770;2023-02-01T15:40:18;4.40;;;2.05;;
65751;SDS011;52486;51.098;13.770;2023-02-01T15:42:51;7.90;;;2.20;;
65751;SDS011;52486;51.098;13.770;2023-02-01T15:45:21;6.60;;;2.33;;
65751;SDS011;52486;51.098;13.770;2023-02-01T15:47:52;3.97;;;2.10;;
65751;SDS011;52486;51.098;13.770;2023-02-01T15:50:21;8.40;;;1.80;;
65751;SDS011;52486;51.098;13.770;2023-02-01T15:52:48;5.28;;;1.98;;
65751;SDS011;52486;51.098;13.770;2023-02-01T15:55:38;4.57;;;1.90;;
65751;SDS011;52486;51.098;13.770;2023-02-01T15:58:19;2.15;;;1.65;;
65751;SDS011;52486;51.098;13.770;2023-02-01T16:00:51;6.53;;;2.10;;
65751;SDS011;52486;51.098;13.770;2023-02-01T16:03:33;4.57;;;1.90;;
65751;SDS011;52486;51.098;13.770;2023-02-01T16:06:00;4.93;;;1.83;;
65751;SDS011;52486;51.098;13.770;2023-02-01T16:08:29;4.47;;;1.98;;
65751;SDS011;52486;51.098;13.770;2023-02-01T16:11:01;8.20;;;1.85;;
65751;SDS011;52486;51.098;13.770;2023-02-01T16:13:33;5.57;;;1.95;;
65751;SDS011;52486;51.098;13.770;2023-02-01T16:15:59;6.03;;;2.00;;
65751;SDS011;52486;51.098;13.770;2023-02-01T16:18:25;2.08;;;1.63;;
65751;SDS011;52486;51.098;13.770;2023-02-01T16:20:51;7.07;;;1.85;;
65751;SDS011;52486;51.098;13.770;2023-02-01T16:23:17;4.05;;;1.67;;
65751;SDS011;52486;51.098;13.770;2023-02-01T16:25:45;3.33;;;1.70;;
65751;SDS011;52486;51.098;13.770;2023-02-01T16:28:11;2.17;;;1.77;;
65751;SDS011;52486;51.098;13.770;2023-02-01T16:30:37;4.53;;;1.60;;
65751;SDS011;52486;51.098;13.770;2023-02-01T16:33:03;2.78;;;1.60;;
65751;SDS011;52486;51.098;13.770;2023-02-01T16:35:36;3.47;;;1.67;;
65751;SDS011;52486;51.098;13.770;2023-02-01T16:38:12;4.00;;;1.67;;
65751;SDS011;52486;51.098;13.770;2023-02-01T16:40:44;4.05;;;1.90;;
65751;SDS011;52486;51.098;13.770;2023-02-01T16:43:14;5.93;;;1.95;;
65751;SDS011;52486;51.098;13.770;2023-02-01T16:45:45;2.60;;;1.60;;
65751;SDS011;52486;51.098;13.770;2023-02-01T16:48:19;4.05;;;1.58;;
65751;SDS011;52486;51.098;13.770;2023-02-01T16:50:51;3.28;;;1.77;;
65751;SDS011;52486;51.098;13.770;2023-02-01T16:53:25;1.95;;;1.67;;
65751;SDS011;52486;51.098;13.770;2023-02-01T16:55:53;4.72;;;2.47;;
65751;SDS011;52486;51.098;13.770;2023-02-01T16:58:20;5.95;;;2.15;;
65751;SDS011;52486;51.098;13.770;2023-02-01T17:00:46;3.95;;;1.58;;
65751;SDS011;52486;51.098;13.770;2023-02-01T17:03:13;5.15;;;1.65;;
65751;SDS011;52486;51.098;13.770;2023-02-01T17:05:41;3.00;;;1.58;;
65751;SDS011;52486;51.098;13.770;2023-02-01T17:08:12;5.35;;;1.73;;
65751;SDS011;52486;51.098;13.770;2023-02-01T17:10:41;2.58;;;1.90;;
65751;SDS011;52486;51.098;13.770;2023-02-01T17:13:13;4.40;;;1.77;;
65751;SDS011;52486;51.098;13.770;2023-02-01T17:15:40;5.20;;;1.70;;
65751;SDS011;52486;51.098;13.770;2023-02-01T17:18:13;3.42;;;1.50;;
65751;SDS011;52486;51.098;13.770;2023-02-01T17:20:40;2.42;;;1.35;;
65751;SDS011;52486;51.098;13.770;2023-02-01T17:23:07;3.75;;;1.85;;
65751;SDS011;52486;51.098;13.770;2023-02-01T17:25:32;4.80;;;2.05;;
65751;SDS011;52486;51.098;13.770;2023-02-01T17:27:58;2.42;;;1.48;;
65751;SDS011;52486;51.098;13.770;2023-02-01T17:30:24;4.47;;;1.70;;
65751;SDS011;52486;51.098;13.770;2023-02-01T17:32:50;1.83;;;1.50;;
65751;SDS011;52486;51.098;13.770;2023-02-01T17:35:21;2.47;;;1.65;;
65751;SDS011;52486;51.098;13.770;2023-02-01T17:37:50;3.65;;;1.48;;
65751;SDS011;52486;51.098;13.770;2023-02-01T17:40:16;2.55;;;1.48;;
65751;SDS011;52486;51.098;13.770;2023-02-01T17:42:43;2.20;;;1.27;;
65751;SDS011;52486;51.098;13.770;2023-02-01T17:48:02;3.30;;;1.58;;
65751;SDS011;52486;51.098;13.770;2023-02-01T17:50:31;2.65;;;1.73;;
65751;SDS011;52486;51.098;13.770;2023-02-01T17:53:00;2.60;;;1.70;;
65751;SDS011;52486;51.098;13.770;2023-02-01T17:55:27;4.25;;;1.55;;
65751;SDS011;52486;51.098;13.770;2023-02-01T17:57:53;2.08;;;1.40;;
65751;SDS011;52486;51.098;13.770;2023-02-01T18:00:19;1.60;;;1.50;;